createdAt,value
2022-10-17T00:03:17.220Z,101757.19
2022-10-17T00:10:19.033Z,101758.91
2022-10-17T00:17:20.703Z,101762.59
2022-10-17T00:24:22.251Z,101745.56
2022-10-17T00:31:24.417Z,101746.31
2022-10-17T00:38:25.997Z,101755.16
2022-10-17T00:45:28.708Z,101742.16
2022-10-17T00:52:30.766Z,101751.75
2022-10-17T00:59:36.462Z,101770.75
2022-10-17T01:06:38.150Z,101764.25
2022-10-17T01:13:44.828Z,101757.59
2022-10-17T01:21:10.709Z,101747.88
2022-10-17T01:28:54.895Z,101732.66
2022-10-17T01:36:06.123Z,101736.34
2022-10-17T01:43:13.842Z,101729.44
2022-10-17T01:50:18.434Z,101722.34
2022-10-17T01:57:36.015Z,101718.59
2022-10-17T02:04:37.631Z,101720.69
2022-10-17T02:11:39.445Z,101716.41
2022-10-17T02:19:09.216Z,101726.50
2022-10-17T02:26:33.656Z,101724.22
2022-10-17T02:33:49.418Z,101718.34
2022-10-17T02:40:51.806Z,101714.59
2022-10-17T02:48:04.974Z,101709.75
2022-10-17T02:55:12.163Z,101710.72
2022-10-17T03:02:13.822Z,101715.75
2022-10-17T03:09:15.711Z,101713.22
2022-10-17T03:16:17.325Z,101703.06
2022-10-17T03:23:19.829Z,101711.47
2022-10-17T03:30:22.009Z,101717.75
2022-10-17T03:37:26.378Z,101696.72
2022-10-17T03:44:28.178Z,101692.41
2022-10-17T03:51:30.035Z,101706.41
2022-10-17T03:58:37.697Z,101694.97
2022-10-17T04:05:39.957Z,101694.38
2022-10-17T04:12:41.873Z,101685.34
2022-10-17T04:19:43.893Z,101678.44
2022-10-17T04:26:45.708Z,101681.50
2022-10-17T04:33:49.957Z,101679.41
2022-10-17T04:40:51.873Z,101675.03
2022-10-17T04:47:53.694Z,101673.13
2022-10-17T04:54:55.426Z,101675.72
2022-10-17T05:01:57.755Z,101681.75
2022-10-17T05:09:00.022Z,101679.84
2022-10-17T05:16:01.777Z,101678.56
2022-10-17T05:23:03.529Z,101679.78
2022-10-17T05:30:10.331Z,101685.38
2022-10-17T05:37:14.544Z,101682.66
2022-10-17T05:44:20.560Z,101684.66
2022-10-17T05:51:28.400Z,101685.56
2022-10-17T05:58:45.841Z,101696.56
2022-10-17T06:06:09.798Z,101694.53
2022-10-17T06:13:18.547Z,101709.16
2022-10-17T06:20:24.187Z,101708.63
2022-10-17T06:27:26.155Z,101730.91
2022-10-17T06:34:27.882Z,101731.72
2022-10-17T06:41:29.634Z,101747.19
2022-10-17T06:48:38.532Z,101739.41
2022-10-17T06:56:04.210Z,101749.84
2022-10-17T07:03:32.728Z,101747.53
2022-10-17T07:10:38.430Z,101749.13
2022-10-17T07:17:42.035Z,101756.00
2022-10-17T07:24:44.149Z,101765.06
2022-10-17T07:32:08.706Z,101769.53
2022-10-17T07:39:10.595Z,101771.41
2022-10-17T07:46:13.722Z,101762.75
2022-10-17T07:53:15.722Z,101765.31
2022-10-17T08:00:17.381Z,101758.69
2022-10-17T08:07:22.962Z,101763.00
2022-10-17T08:14:27.025Z,101763.13
2022-10-17T08:21:28.639Z,101761.91
2022-10-17T08:28:30.324Z,101763.69
2022-10-17T08:35:31.997Z,101758.69
2022-10-17T08:42:55.340Z,101747.22
2022-10-17T08:49:58.632Z,101746.84
2022-10-17T08:57:00.183Z,101732.91
2022-10-17T09:04:23.523Z,101743.19
2022-10-17T09:11:38.574Z,101741.63
2022-10-17T09:18:41.900Z,101746.66
2022-10-17T09:25:48.440Z,101750.75
2022-10-17T09:32:50.015Z,101745.56
2022-10-17T09:39:51.567Z,101725.91
2022-10-17T09:47:14.892Z,101728.31
2022-10-17T09:54:24.343Z,101725.16
2022-10-17T10:01:28.922Z,101717.34
2022-10-17T10:08:32.954Z,101712.53
2022-10-17T10:15:40.904Z,101702.56
2022-10-17T10:22:42.454Z,101711.97
2022-10-17T10:29:52.957Z,101715.91
2022-10-17T10:36:58.833Z,101713.41
2022-10-17T10:44:00.447Z,101708.00
2022-10-17T10:51:08.751Z,101702.19
2022-10-17T10:58:26.644Z,101701.31
2022-10-17T11:05:54.129Z,101690.31
2022-10-17T11:13:11.664Z,101696.19
2022-10-17T11:20:31.822Z,101684.19
2022-10-17T11:27:34.087Z,101665.97
2022-10-17T11:34:39.881Z,101666.03
2022-10-17T11:41:57.509Z,101661.28
2022-10-17T11:49:19.900Z,101659.84
2022-10-17T11:56:29.502Z,101653.03
2022-10-17T12:03:43.174Z,101649.88
2022-10-17T12:11:14.815Z,101648.03
2022-10-17T12:18:16.556Z,101650.38
2022-10-17T12:25:20.204Z,101648.34
2022-10-17T12:32:21.784Z,101640.97
2022-10-17T12:39:26.099Z,101635.13
2022-10-17T12:46:46.232Z,101625.63
2022-10-17T12:54:07.167Z,101633.34
2022-10-17T13:01:23.531Z,101632.63
2022-10-17T13:08:32.787Z,101619.50
2022-10-17T13:15:34.366Z,101620.53
2022-10-17T13:22:35.921Z,101624.16
2022-10-17T13:29:38.318Z,101634.50
2022-10-17T13:36:39.899Z,101628.97
2022-10-17T13:43:41.474Z,101624.53
2022-10-17T13:50:44.970Z,101613.38
2022-10-17T13:57:47.183Z,101630.63
2022-10-17T14:05:17.895Z,101627.47
2022-10-17T14:12:20.467Z,101636.09
2022-10-17T14:19:32.543Z,101636.44
2022-10-17T14:26:37.241Z,101634.22
2022-10-17T14:33:42.579Z,101644.03
2022-10-17T14:40:53.046Z,101654.50
2022-10-17T14:47:55.944Z,101656.00
2022-10-17T14:54:58.020Z,101647.41
2022-10-17T15:01:59.575Z,101648.28
2022-10-17T15:09:01.254Z,101659.59
2022-10-17T15:16:02.875Z,101656.84
2022-10-17T15:23:04.521Z,101666.28
2022-10-17T15:30:38.759Z,101663.22
2022-10-17T15:37:40.669Z,101663.31
2022-10-17T15:44:44.341Z,101664.94
2022-10-17T15:51:45.969Z,101678.34
2022-10-17T15:58:47.684Z,101669.72
2022-10-17T16:05:52.015Z,101677.44
2022-10-17T16:12:53.956Z,101669.47
2022-10-17T16:19:55.728Z,101678.63
2022-10-17T16:26:57.322Z,101679.69
2022-10-17T16:33:59.608Z,101687.38
2022-10-17T16:41:01.175Z,101691.88
2022-10-17T16:48:02.767Z,101686.63
2022-10-17T16:55:07.144Z,101688.06
2022-10-17T17:02:10.621Z,101693.13
2022-10-17T17:09:12.191Z,101700.50
2022-10-17T17:16:15.431Z,101696.16
2022-10-17T17:23:17.066Z,101700.41
2022-10-17T17:30:18.675Z,101708.16
2022-10-17T17:37:20.249Z,101708.28
2022-10-17T17:44:21.905Z,101715.72
2022-10-17T17:51:28.355Z,101704.81
2022-10-17T17:58:30.856Z,101717.84
2022-10-17T18:05:32.583Z,101725.25
2022-10-17T18:12:36.958Z,101740.91
2022-10-17T18:19:38.541Z,101741.84
2022-10-17T18:26:40.099Z,101747.25
2022-10-17T18:33:42.767Z,101748.78
2022-10-17T18:40:46.138Z,101750.44
2022-10-17T18:47:53.638Z,101763.06
2022-10-17T18:54:55.248Z,101772.38
2022-10-17T19:01:56.823Z,101769.06
2022-10-17T19:09:00.067Z,101775.56
2022-10-17T19:16:09.464Z,101792.75
2022-10-17T19:23:11.006Z,101795.50
2022-10-17T19:30:12.631Z,101795.25
2022-10-17T19:37:14.325Z,101791.13
2022-10-17T19:44:16.024Z,101794.38
2022-10-17T19:51:18.866Z,101800.44
2022-10-17T19:58:20.425Z,101803.91
2022-10-17T20:05:25.899Z,101808.75
2022-10-17T20:12:29.281Z,101815.56
2022-10-17T20:19:31.180Z,101829.75
2022-10-17T20:26:38.210Z,101836.81
2022-10-17T20:33:41.518Z,101835.69
2022-10-17T20:40:43.502Z,101835.28
2022-10-17T20:47:49.147Z,101844.19
2022-10-17T20:54:53.184Z,101847.50
2022-10-17T21:01:54.805Z,101858.38
2022-10-17T21:08:57.056Z,101857.44
2022-10-17T21:16:05.057Z,101857.81
2022-10-17T21:23:06.647Z,101869.63
2022-10-17T21:37:15.072Z,101877.34
2022-10-17T21:44:22.079Z,101877.16
2022-10-17T21:51:24.642Z,101879.56
2022-10-17T21:58:26.391Z,101891.16
2022-10-17T22:05:28.003Z,101905.47
2022-10-17T22:12:29.931Z,101908.84
2022-10-17T22:19:31.731Z,101909.50
2022-10-17T22:26:34.259Z,101928.06
2022-10-17T22:33:36.393Z,101923.78
2022-10-17T22:40:37.934Z,101918.56
2022-10-17T22:47:39.511Z,101920.63
2022-10-17T22:54:41.072Z,101919.66
2022-10-17T23:01:42.656Z,101919.88
2022-10-17T23:08:44.288Z,101919.88
2022-10-17T23:15:45.854Z,101918.88
2022-10-17T23:22:47.436Z,101917.88
2022-10-17T23:29:48.971Z,101920.63
2022-10-17T23:36:52.081Z,101923.25
2022-10-17T23:43:53.666Z,101916.03
2022-10-17T23:50:55.991Z,101926.97
2022-10-17T23:57:57.535Z,101926.06
